sensor_id;sensor_type;location;lat;lon;timestamp;pressure;altitude;pressure_sealevel;temperature;humidity
36664;BME280;53333;51.976;20.144;2023-03-23T00:02:16;99484.91;;;10.72;66.43
36664;BME280;53333;51.976;20.144;2023-03-23T00:04:48;99476.91;;;10.72;66.14
36664;BME280;53333;51.976;20.144;2023-03-23T00:07:22;99480.41;;;10.73;66.17
36664;BME280;53333;51.976;20.144;2023-03-23T00:09:58;99476.63;;;10.77;66.01
36664;BME280;53333;51.976;20.144;2023-03-23T00:12:32;99472.88;;;10.80;65.98
36664;BME280;53333;51.976;20.144;2023-03-23T00:15:06;99476.34;;;10.82;65.89
36664;BME280;53333;51.976;20.144;2023-03-23T00:17:41;99471.66;;;10.85;65.84
36664;BME280;53333;51.976;20.144;2023-03-23T00:20:14;99471.66;;;10.85;65.72
36664;BME280;53333;51.976;20.144;2023-03-23T00:22:47;99468.03;;;10.86;65.78
36664;BME280;53333;51.976;20.144;2023-03-23T00:25:19;99467.84;;;10.89;65.72
36664;BME280;53333;51.976;20.144;2023-03-23T00:27:53;99475.84;;;10.89;65.57
36664;BME280;53333;51.976;20.144;2023-03-23T00:30:25;99471.31;;;10.92;65.40
36664;BME280;53333;51.976;20.144;2023-03-23T00:32:56;99476.66;;;10.92;65.38
36664;BME280;53333;51.976;20.144;2023-03-23T00:35:31;99473.00;;;10.93;65.43
36664;BME280;53333;51.976;20.144;2023-03-23T00:38:05;99471.22;;;10.93;65.43
36664;BME280;53333;51.976;20.144;2023-03-23T00:40:37;99473.88;;;10.93;65.32
36664;BME280;53333;51.976;20.144;2023-03-23T00:43:10;99475.50;;;10.96;65.25
36664;BME280;53333;51.976;20.144;2023-03-23T00:45:44;99459.53;;;10.94;65.18
36664;BME280;53333;51.976;20.144;2023-03-23T00:48:20;99468.34;;;10.96;65.11
36664;BME280;53333;51.976;20.144;2023-03-23T00:50:52;99470.94;;;10.98;65.11
36664;BME280;53333;51.976;20.144;2023-03-23T00:53:26;99472.63;;;10.99;65.00
36664;BME280;53333;51.976;20.144;2023-03-23T00:55:58;99466.25;;;11.01;64.92
36664;BME280;53333;51.976;20.144;2023-03-23T00:58:30;99463.50;;;11.03;64.86
36664;BME280;53333;51.976;20.144;2023-03-23T01:01:03;99462.41;;;11.05;64.74
36664;BME280;53333;51.976;20.144;2023-03-23T01:03:37;99465.00;;;11.07;64.77
36664;BME280;53333;51.976;20.144;2023-03-23T01:06:10;99464.81;;;11.10;64.66
36664;BME280;53333;51.976;20.144;2023-03-23T01:08:48;99469.13;;;11.13;64.65
36664;BME280;53333;51.976;20.144;2023-03-23T01:11:20;99460.25;;;11.26;64.24
36664;BME280;53333;51.976;20.144;2023-03-23T01:13:52;99459.94;;;11.17;64.24
36664;BME280;53333;51.976;20.144;2023-03-23T01:16:24;99458.91;;;11.19;64.24
36664;BME280;53333;51.976;20.144;2023-03-23T01:18:56;99455.28;;;11.20;64.29
36664;BME280;53333;51.976;20.144;2023-03-23T01:21:30;99458.81;;;11.21;64.35
36664;BME280;53333;51.976;20.144;2023-03-23T01:24:04;99462.31;;;11.21;64.29
36664;BME280;53333;51.976;20.144;2023-03-23T01:26:36;99456.03;;;11.22;64.26
36664;BME280;53333;51.976;20.144;2023-03-23T01:29:08;99455.09;;;11.23;64.22
36664;BME280;53333;51.976;20.144;2023-03-23T01:31:41;99456.78;;;11.24;64.18
36664;BME280;53333;51.976;20.144;2023-03-23T01:34:14;99453.16;;;11.25;64.13
36664;BME280;53333;51.976;20.144;2023-03-23T01:36:46;99452.41;;;11.23;63.96
36664;BME280;53333;51.976;20.144;2023-03-23T01:39:19;99448.00;;;11.22;64.17
36664;BME280;53333;51.976;20.144;2023-03-23T01:41:51;99447.91;;;11.24;64.08
36664;BME280;53333;51.976;20.144;2023-03-23T01:47:35;99447.06;;;11.23;64.04
36664;BME280;53333;51.976;20.144;2023-03-23T01:50:07;99444.41;;;11.23;64.13
36664;BME280;53333;51.976;20.144;2023-03-23T01:52:40;99446.09;;;11.24;63.96
36664;BME280;53333;51.976;20.144;2023-03-23T01:55:13;99453.16;;;11.25;63.87
36664;BME280;53333;51.976;20.144;2023-03-23T01:57:48;99450.41;;;11.27;63.83
36664;BME280;53333;51.976;20.144;2023-03-23T02:00:21;99442.28;;;11.29;63.75
36664;BME280;53333;51.976;20.144;2023-03-23T02:02:57;99443.22;;;11.27;63.85
36664;BME280;53333;51.976;20.144;2023-03-23T02:05:33;99437.78;;;11.29;63.81
36664;BME280;53333;51.976;20.144;2023-03-23T02:08:14;99442.19;;;11.30;63.70
36664;BME280;53333;51.976;20.144;2023-03-23T02:10:48;99438.66;;;11.30;63.80
36664;BME280;53333;51.976;20.144;2023-03-23T02:13:20;99433.31;;;11.30;63.64
36664;BME280;53333;51.976;20.144;2023-03-23T02:16:02;99435.88;;;11.31;63.78
36664;BME280;53333;51.976;20.144;2023-03-23T02:18:45;99433.31;;;11.30;63.81
36664;BME280;53333;51.976;20.144;2023-03-23T02:21:52;99430.44;;;11.33;63.73
36664;BME280;53333;51.976;20.144;2023-03-23T02:24:57;99444.56;;;11.35;63.58
36664;BME280;53333;51.976;20.144;2023-03-23T02:28:00;99440.19;;;11.34;63.62
36664;BME280;53333;51.976;20.144;2023-03-23T02:30:57;99444.69;;;11.33;63.61
36664;BME280;53333;51.976;20.144;2023-03-23T02:33:43;99436.84;;;11.30;63.75
36664;BME280;53333;51.976;20.144;2023-03-23T02:36:22;99433.31;;;11.30;63.58
36664;BME280;53333;51.976;20.144;2023-03-23T02:39:00;99436.09;;;11.28;63.59
36664;BME280;53333;51.976;20.144;2023-03-23T02:41:53;99439.53;;;11.30;63.56
36664;BME280;53333;51.976;20.144;2023-03-23T02:44:27;99437.97;;;11.26;63.73
36664;BME280;53333;51.976;20.144;2023-03-23T02:47:03;99431.88;;;11.24;63.78
36664;BME280;53333;51.976;20.144;2023-03-23T02:49:39;99435.50;;;11.23;63.80
36664;BME280;53333;51.976;20.144;2023-03-23T02:52:17;99439.16;;;11.22;63.63
36664;BME280;53333;51.976;20.144;2023-03-23T02:54:53;99444.69;;;11.19;63.54
36664;BME280;53333;51.976;20.144;2023-03-23T02:57:30;99438.66;;;11.15;63.74
36664;BME280;53333;51.976;20.144;2023-03-23T03:00:07;99440.66;;;11.12;63.78
36664;BME280;53333;51.976;20.144;2023-03-23T03:02:43;99446.28;;;11.07;63.81
36664;BME280;53333;51.976;20.144;2023-03-23T03:05:23;99449.16;;;11.04;63.94
36664;BME280;53333;51.976;20.144;2023-03-23T03:08:13;99446.56;;;11.02;63.84
36664;BME280;53333;51.976;20.144;2023-03-23T03:10:52;99453.25;;;10.95;63.94
36664;BME280;53333;51.976;20.144;2023-03-23T03:13:33;99452.50;;;10.93;63.97
36664;BME280;53333;51.976;20.144;2023-03-23T03:16:16;99441.13;;;10.89;63.98
36664;BME280;53333;51.976;20.144;2023-03-23T03:18:55;99445.81;;;10.86;64.08
36664;BME280;53333;51.976;20.144;2023-03-23T03:21:33;99447.81;;;10.82;64.19
36664;BME280;53333;51.976;20.144;2023-03-23T03:24:08;99446.09;;;10.81;64.21
36664;BME280;53333;51.976;20.144;2023-03-23T03:26:45;99444.38;;;10.80;64.29
36664;BME280;53333;51.976;20.144;2023-03-23T03:29:33;99434.53;;;10.81;64.22
36664;BME280;53333;51.976;20.144;2023-03-23T03:32:08;99441.72;;;10.80;64.25
36664;BME280;53333;51.976;20.144;2023-03-23T03:34:41;99426.72;;;10.78;64.19
36664;BME280;53333;51.976;20.144;2023-03-23T03:37:16;99427.75;;;10.75;64.26
36664;BME280;53333;51.976;20.144;2023-03-23T03:39:50;99432.44;;;10.71;64.31
36664;BME280;53333;51.976;20.144;2023-03-23T03:42:22;99421.09;;;10.68;64.42
36664;BME280;53333;51.976;20.144;2023-03-23T03:44:56;99426.59;;;10.65;64.52
36664;BME280;53333;51.976;20.144;2023-03-23T03:47:28;99421.44;;;10.62;64.49
36664;BME280;53333;51.976;20.144;2023-03-23T03:50:01;99423.28;;;10.61;64.44
36664;BME280;53333;51.976;20.144;2023-03-23T03:52:34;99429.56;;;10.60;64.60
36664;BME280;53333;51.976;20.144;2023-03-23T03:55:08;99427.81;;;10.59;64.50
36664;BME280;53333;51.976;20.144;2023-03-23T03:57:43;99428.81;;;10.58;64.65
36664;BME280;53333;51.976;20.144;2023-03-23T04:00:42;99420.97;;;10.55;64.64
36664;BME280;53333;51.976;20.144;2023-03-23T04:03:20;99422.00;;;10.52;64.66
36664;BME280;53333;51.976;20.144;2023-03-23T04:06:05;99417.63;;;10.51;64.60
36664;BME280;53333;51.976;20.144;2023-03-23T04:08:40;99417.72;;;10.50;64.66
36664;BME280;53333;51.976;20.144;2023-03-23T04:11:14;99425.72;;;10.50;64.85
36664;BME280;53333;51.976;20.144;2023-03-23T04:13:46;99425.72;;;10.50;64.71
36664;BME280;53333;51.976;20.144;2023-03-23T04:16:23;99429.25;;;10.50;64.72
36664;BME280;53333;51.976;20.144;2023-03-23T04:18:57;99424.84;;;10.49;64.72
36664;BME280;53333;51.976;20.144;2023-03-23T04:21:31;99429.16;;;10.52;64.66
36664;BME280;53333;51.976;20.144;2023-03-23T04:24:05;99424.75;;;10.51;64.78
36664;BME280;53333;51.976;20.144;2023-03-23T04:26:38;99424.75;;;10.51;64.71
36664;BME280;53333;51.976;20.144;2023-03-23T04:29:21;99419.41;;;10.51;64.70
36664;BME280;53333;51.976;20.144;2023-03-23T04:32:26;99414.97;;;10.51;64.69
36664;BME280;53333;51.976;20.144;2023-03-23T04:34:59;99415.91;;;10.50;64.56
36664;BME280;53333;51.976;20.144;2023-03-23T04:37:40;99406.06;;;10.51;64.76
36664;BME280;53333;51.976;20.144;2023-03-23T04:40:17;99407.91;;;10.50;64.79
36664;BME280;53333;51.976;20.144;2023-03-23T04:42:59;99407.97;;;10.49;64.82
36664;BME280;53333;51.976;20.144;2023-03-23T04:45:53;99411.72;;;10.61;64.38
36664;BME280;53333;51.976;20.144;2023-03-23T04:48:29;99407.13;;;10.48;64.42
36664;BME280;53333;51.976;20.144;2023-03-23T04:51:29;99410.75;;;10.47;64.61
36664;BME280;53333;51.976;20.144;2023-03-23T04:54:11;99404.66;;;10.45;64.66
36664;BME280;53333;51.976;20.144;2023-03-23T04:56:48;99405.50;;;10.46;64.73
36664;BME280;53333;51.976;20.144;2023-03-23T04:59:20;99404.56;;;10.47;64.76
36664;BME280;53333;51.976;20.144;2023-03-23T05:02:18;99401.69;;;10.50;64.71
36664;BME280;53333;51.976;20.144;2023-03-23T05:04:51;99409.63;;;10.51;64.65
36664;BME280;53333;51.976;20.144;2023-03-23T05:07:27;99410.38;;;10.53;64.66
36664;BME280;53333;51.976;20.144;2023-03-23T05:10:00;99416.38;;;10.57;64.55
36664;BME280;53333;51.976;20.144;2023-03-23T05:12:36;99414.28;;;10.62;64.44
36664;BME280;53333;51.976;20.144;2023-03-23T05:15:13;99399.81;;;10.66;64.44
36664;BME280;53333;51.976;20.144;2023-03-23T05:17:46;99400.47;;;10.70;64.52
36664;BME280;53333;51.976;20.144;2023-03-23T05:20:25;99396.78;;;10.72;64.32
36664;BME280;53333;51.976;20.144;2023-03-23T05:23:03;99396.59;;;10.76;64.35
36664;BME280;53333;51.976;20.144;2023-03-23T05:25:39;99393.63;;;10.80;64.13
36664;BME280;53333;51.976;20.144;2023-03-23T05:28:21;99392.38;;;10.86;64.18
36664;BME280;53333;51.976;20.144;2023-03-23T05:31:00;99396.50;;;10.92;63.96
36664;BME280;53333;51.976;20.144;2023-03-23T05:33:35;99398.78;;;10.98;63.89
36664;BME280;53333;51.976;20.144;2023-03-23T05:36:28;99394.75;;;11.05;63.60
36664;BME280;53333;51.976;20.144;2023-03-23T05:39:23;99390.66;;;11.14;63.50
36664;BME280;53333;51.976;20.144;2023-03-23T05:42:08;99392.72;;;11.23;63.20
36664;BME280;53333;51.976;20.144;2023-03-23T05:44:51;99393.22;;;11.30;63.08
36664;BME280;53333;51.976;20.144;2023-03-23T05:47:24;99387.47;;;11.36;62.92
36664;BME280;53333;51.976;20.144;2023-03-23T05:50:00;99387.84;;;11.44;62.81
36664;BME280;53333;51.976;20.144;2023-03-23T05:52:34;99390.09;;;11.50;62.58
36664;BME280;53333;51.976;20.144;2023-03-23T05:55:10;99392.28;;;11.58;62.39
36664;BME280;53333;51.976;20.144;2023-03-23T05:57:45;99400.56;;;11.68;62.12
36664;BME280;53333;51.976;20.144;2023-03-23T06:00:32;99386.59;;;11.77;61.93
36664;BME280;53333;51.976;20.144;2023-03-23T06:03:21;99395.75;;;11.87;61.79
36664;BME280;53333;51.976;20.144;2023-03-23T06:06:16;99391.63;;;11.96;61.40
36664;BME280;53333;51.976;20.144;2023-03-23T06:09:08;99396.47;;;12.04;61.39
36664;BME280;53333;51.976;20.144;2023-03-23T06:12:10;99400.41;;;12.11;61.08
36664;BME280;53333;51.976;20.144;2023-03-23T06:14:54;99395.75;;;12.14;61.08
36664;BME280;53333;51.976;20.144;2023-03-23T06:17:36;99399.28;;;12.15;60.92
36664;BME280;53333;51.976;20.144;2023-03-23T06:20:10;99387.72;;;12.14;60.80
36664;BME280;53333;51.976;20.144;2023-03-23T06:22:44;99398.41;;;12.14;60.82
36664;BME280;53333;51.976;20.144;2023-03-23T06:25:25;99391.25;;;12.15;60.82
36664;BME280;53333;51.976;20.144;2023-03-23T06:27:57;99400.00;;;12.17;60.93
36664;BME280;53333;51.976;20.144;2023-03-23T06:30:29;99390.09;;;12.19;60.70
36664;BME280;53333;51.976;20.144;2023-03-23T06:33:04;99398.97;;;12.20;60.69
36664;BME280;53333;51.976;20.144;2023-03-23T06:35:54;99399.72;;;12.22;60.70
36664;BME280;53333;51.976;20.144;2023-03-23T06:38:52;99402.28;;;12.23;60.77
36664;BME280;53333;51.976;20.144;2023-03-23T06:41:33;99404.13;;;12.23;60.88
36664;BME280;53333;51.976;20.144;2023-03-23T06:44:06;99393.19;;;12.26;60.52
36664;BME280;53333;51.976;20.144;2023-03-23T06:46:39;99407.22;;;12.29;60.93
36664;BME280;53333;51.976;20.144;2023-03-23T06:49:31;99405.63;;;12.40;60.67
36664;BME280;53333;51.976;20.144;2023-03-23T06:52:13;99412.09;;;12.50;60.45
36664;BME280;53333;51.976;20.144;2023-03-23T06:54:45;99410.69;;;12.57;60.27
36664;BME280;53333;51.976;20.144;2023-03-23T06:57:18;99420.03;;;12.64;60.13
36664;BME280;53333;51.976;20.144;2023-03-23T06:59:52;99418.88;;;12.68;60.13
36664;BME280;53333;51.976;20.144;2023-03-23T07:02:27;99418.41;;;12.75;60.08
36664;BME280;53333;51.976;20.144;2023-03-23T07:05:01;99412.63;;;12.81;59.94
36664;BME280;53333;51.976;20.144;2023-03-23T07:07:33;99415.00;;;12.98;59.81
36664;BME280;53333;51.976;20.144;2023-03-23T07:10:38;99417.13;;;12.93;59.56
36664;BME280;53333;51.976;20.144;2023-03-23T07:13:11;99415.19;;;12.95;59.41
36664;BME280;53333;51.976;20.144;2023-03-23T07:15:50;99416.72;;;12.99;59.46
36664;BME280;53333;51.976;20.144;2023-03-23T07:18:23;99412.00;;;13.03;59.29
36664;BME280;53333;51.976;20.144;2023-03-23T07:20:59;99417.88;;;13.08;59.10
36664;BME280;53333;51.976;20.144;2023-03-23T07:23:35;99419.16;;;13.15;58.88
36664;BME280;53333;51.976;20.144;2023-03-23T07:26:13;99416.06;;;13.21;58.48
36664;BME280;53333;51.976;20.144;2023-03-23T07:28:53;99425.47;;;13.27;58.33
36664;BME280;53333;51.976;20.144;2023-03-23T07:31:29;99418.94;;;13.31;58.37
36664;BME280;53333;51.976;20.144;2023-03-23T07:34:02;99413.91;;;13.39;58.00
36664;BME280;53333;51.976;20.144;2023-03-23T07:36:54;99406.56;;;13.54;57.71
36664;BME280;53333;51.976;20.144;2023-03-23T07:39:28;99403.38;;;13.73;57.48
36664;BME280;53333;51.976;20.144;2023-03-23T07:42:03;99401.06;;;13.93;57.08
36664;BME280;53333;51.976;20.144;2023-03-23T07:44:53;99402.34;;;14.11;56.75
36664;BME280;53333;51.976;20.144;2023-03-23T07:47:24;99403.88;;;14.27;56.35
36664;BME280;53333;51.976;20.144;2023-03-23T07:49:57;99399.50;;;14.37;56.02
36664;BME280;53333;51.976;20.144;2023-03-23T07:52:40;99396.00;;;14.48;55.52
36664;BME280;53333;51.976;20.144;2023-03-23T07:55:13;99399.78;;;14.57;55.47
36664;BME280;53333;51.976;20.144;2023-03-23T07:58:10;99401.81;;;14.66;55.23
36664;BME280;53333;51.976;20.144;2023-03-23T08:00:48;99394.88;;;14.75;54.89
36664;BME280;53333;51.976;20.144;2023-03-23T08:03:24;99381.69;;;14.83;54.53
36664;BME280;53333;51.976;20.144;2023-03-23T08:06:15;99375.34;;;14.95;54.11
36664;BME280;53333;51.976;20.144;2023-03-23T08:09:06;99378.75;;;15.08;53.94
36664;BME280;53333;51.976;20.144;2023-03-23T08:12:04;99366.66;;;15.25;53.60
36664;BME280;53333;51.976;20.144;2023-03-23T08:14:56;99360.00;;;15.64;52.57
36664;BME280;53333;51.976;20.144;2023-03-23T08:17:55;99356.38;;;16.60;50.92
36664;BME280;53333;51.976;20.144;2023-03-23T08:20:45;99376.56;;;17.18;49.90
36664;BME280;53333;51.976;20.144;2023-03-23T08:23:32;99365.25;;;17.34;49.08
36664;BME280;53333;51.976;20.144;2023-03-23T08:26:32;99347.66;;;17.39;48.88
36664;BME280;53333;51.976;20.144;2023-03-23T08:29:18;99352.94;;;17.41;48.84
36664;BME280;53333;51.976;20.144;2023-03-23T08:32:10;99355.34;;;17.44;48.59
36664;BME280;53333;51.976;20.144;2023-03-23T08:34:56;99364.69;;;17.40;48.34
36664;BME280;53333;51.976;20.144;2023-03-23T08:38:00;99363.03;;;17.49;49.55
36664;BME280;53333;51.976;20.144;2023-03-23T08:40:45;99361.97;;;17.30;48.35
36664;BME280;53333;51.976;20.144;2023-03-23T08:43:52;99365.94;;;17.26;48.10
36664;BME280;53333;51.976;20.144;2023-03-23T08:46:47;99367.75;;;17.16;48.10
36664;BME280;53333;51.976;20.144;2023-03-23T08:49:42;99360.03;;;17.01;48.37
36664;BME280;53333;51.976;20.144;2023-03-23T08:52:34;99361.13;;;16.99;48.14
36664;BME280;53333;51.976;20.144;2023-03-23T08:55:32;99363.75;;;17.10;48.14
36664;BME280;53333;51.976;20.144;2023-03-23T08:58:20;99365.06;;;17.16;47.89
36664;BME280;53333;51.976;20.144;2023-03-23T09:01:11;99353.84;;;17.20;48.23
36664;BME280;53333;51.976;20.144;2023-03-23T09:04:02;99362.25;;;17.27;47.93
36664;BME280;53333;51.976;20.144;2023-03-23T09:06:35;99352.78;;;17.42;47.99
36664;BME280;53333;51.976;20.144;2023-03-23T09:09:07;99355.81;;;17.69;47.55
36664;BME280;53333;51.976;20.144;2023-03-23T09:11:39;99347.47;;;17.91;47.39
36664;BME280;53333;51.976;20.144;2023-03-23T09:14:13;99347.63;;;18.09;47.05
36664;BME280;53333;51.976;20.144;2023-03-23T09:16:44;99351.16;;;18.29;47.03
36664;BME280;53333;51.976;20.144;2023-03-23T09:19:17;99353.16;;;18.37;46.11
36664;BME280;53333;51.976;20.144;2023-03-23T09:21:49;99350.00;;;18.51;45.05
36664;BME280;53333;51.976;20.144;2023-03-23T09:24:21;99350.53;;;19.12;43.91
36664;BME280;53333;51.976;20.144;2023-03-23T09:26:53;99341.81;;;19.46;43.09
36664;BME280;53333;51.976;20.144;2023-03-23T09:29:27;99349.50;;;19.96;41.97
36664;BME280;53333;51.976;20.144;2023-03-23T09:31:58;99352.13;;;20.68;42.71
36664;BME280;53333;51.976;20.144;2023-03-23T09:34:30;99352.81;;;20.97;40.04
36664;BME280;53333;51.976;20.144;2023-03-23T09:37:06;99339.78;;;22.02;38.03
36664;BME280;53333;51.976;20.144;2023-03-23T09:39:38;99336.41;;;23.62;35.71
36664;BME280;53333;51.976;20.144;2023-03-23T09:42:19;99330.84;;;25.15;33.41
36664;BME280;53333;51.976;20.144;2023-03-23T09:45:03;99329.50;;;26.64;30.92
36664;BME280;53333;51.976;20.144;2023-03-23T09:47:47;99330.50;;;27.61;29.29
36664;BME280;53333;51.976;20.144;2023-03-23T09:50:25;99337.00;;;28.29;28.38
36664;BME280;53333;51.976;20.144;2023-03-23T09:53:08;99341.19;;;29.05;26.98
36664;BME280;53333;51.976;20.144;2023-03-23T09:55:42;99325.91;;;29.87;25.79
36664;BME280;53333;51.976;20.144;2023-03-23T09:58:18;99327.50;;;30.02;25.53
36664;BME280;53333;51.976;20.144;2023-03-23T10:01:07;99320.91;;;29.64;25.39
36664;BME280;53333;51.976;20.144;2023-03-23T10:03:42;99339.53;;;28.90;26.18
36664;BME280;53333;51.976;20.144;2023-03-23T10:06:16;99324.97;;;28.56;26.16
36664;BME280;53333;51.976;20.144;2023-03-23T10:08:50;99331.28;;;29.10;25.42
36664;BME280;53333;51.976;20.144;2023-03-23T10:11:30;99317.56;;;30.01;24.11
36664;BME280;53333;51.976;20.144;2023-03-23T10:14:23;99317.00;;;30.93;23.29
36664;BME280;53333;51.976;20.144;2023-03-23T10:17:08;99305.25;;;32.02;22.29
36664;BME280;53333;51.976;20.144;2023-03-23T10:19:47;99311.88;;;33.14;20.72
36664;BME280;53333;51.976;20.144;2023-03-23T10:22:26;99312.31;;;34.04;20.00
36664;BME280;53333;51.976;20.144;2023-03-23T10:25:14;99306.75;;;34.50;18.84
36664;BME280;53333;51.976;20.144;2023-03-23T10:27:52;99300.75;;;34.92;18.45
36664;BME280;53333;51.976;20.144;2023-03-23T10:30:29;99300.00;;;35.19;18.27
36664;BME280;53333;51.976;20.144;2023-03-23T10:33:10;99304.47;;;35.42;17.80
36664;BME280;53333;51.976;20.144;2023-03-23T10:35:47;99294.16;;;35.37;17.23
36664;BME280;53333;51.976;20.144;2023-03-23T10:38:26;99279.22;;;35.21;18.00
36664;BME280;53333;51.976;20.144;2023-03-23T10:41:05;99292.53;;;35.19;17.28
36664;BME280;53333;51.976;20.144;2023-03-23T10:43:39;99273.69;;;34.99;17.66
36664;BME280;53333;51.976;20.144;2023-03-23T10:46:22;99286.34;;;35.12;17.59
36664;BME280;53333;51.976;20.144;2023-03-23T10:48:59;99279.28;;;35.49;17.07
36664;BME280;53333;51.976;20.144;2023-03-23T10:51:36;99289.25;;;35.94;16.69
36664;BME280;53333;51.976;20.144;2023-03-23T10:54:08;99289.38;;;36.36;16.69
36664;BME280;53333;51.976;20.144;2023-03-23T10:56:42;99286.97;;;36.88;16.09
36664;BME280;53333;51.976;20.144;2023-03-23T10:59:19;99279.22;;;36.52;16.03
36664;BME280;53333;51.976;20.144;2023-03-23T11:01:56;99283.94;;;35.65;16.52
36664;BME280;53333;51.976;20.144;2023-03-23T11:04:31;99278.22;;;34.32;17.81
36664;BME280;53333;51.976;20.144;2023-03-23T11:07:05;99277.63;;;33.03;18.72
36664;BME280;53333;51.976;20.144;2023-03-23T11:09:52;99284.56;;;33.58;18.40
36664;BME280;53333;51.976;20.144;2023-03-23T11:12:25;99256.56;;;34.29;17.89
36664;BME280;53333;51.976;20.144;2023-03-23T11:15:20;99254.50;;;35.64;17.10
36664;BME280;53333;51.976;20.144;2023-03-23T11:17:58;99262.69;;;36.73;16.09
36664;BME280;53333;51.976;20.144;2023-03-23T11:20:35;99252.56;;;37.09;15.51
36664;BME280;53333;51.976;20.144;2023-03-23T11:23:17;99242.94;;;36.32;16.12
36664;BME280;53333;51.976;20.144;2023-03-23T11:26:08;99247.25;;;35.14;16.35
36664;BME280;53333;51.976;20.144;2023-03-23T11:28:44;99250.28;;;33.88;17.36
36664;BME280;53333;51.976;20.144;2023-03-23T11:31:21;99240.81;;;33.03;18.26
36664;BME280;53333;51.976;20.144;2023-03-23T11:33:56;99232.84;;;32.18;18.71
36664;BME280;53333;51.976;20.144;2023-03-23T11:36:35;99254.44;;;32.33;18.63
36664;BME280;53333;51.976;20.144;2023-03-23T11:39:22;99238.19;;;31.59;18.82
36664;BME280;53333;51.976;20.144;2023-03-23T11:41:55;99221.19;;;31.44;18.91
36664;BME280;53333;51.976;20.144;2023-03-23T11:44:32;99219.97;;;31.58;18.79
36664;BME280;53333;51.976;20.144;2023-03-23T11:47:10;99221.13;;;31.32;19.14
36664;BME280;53333;51.976;20.144;2023-03-23T11:49:51;99223.00;;;30.83;19.34
36664;BME280;53333;51.976;20.144;2023-03-23T11:52:33;99231.31;;;29.82;20.59
36664;BME280;53333;51.976;20.144;2023-03-23T11:55:12;99245.34;;;28.56;21.38
36664;BME280;53333;51.976;20.144;2023-03-23T11:57:46;99225.97;;;27.23;22.38
36664;BME280;53333;51.976;20.144;2023-03-23T12:00:20;99216.53;;;26.20;23.52
36664;BME280;53333;51.976;20.144;2023-03-23T12:02:59;99194.88;;;26.54;23.62
36664;BME280;53333;51.976;20.144;2023-03-23T12:05:56;99204.91;;;26.46;23.87
36664;BME280;53333;51.976;20.144;2023-03-23T12:08:43;99202.63;;;26.85;23.51
36664;BME280;53333;51.976;20.144;2023-03-23T12:11:25;99196.66;;;26.68;23.87
36664;BME280;53333;51.976;20.144;2023-03-23T12:14:12;99193.00;;;26.96;23.60
36664;BME280;53333;51.976;20.144;2023-03-23T12:16:53;99219.38;;;27.10;23.37
36664;BME280;53333;51.976;20.144;2023-03-23T12:22:44;99214.13;;;26.39;24.03
36664;BME280;53333;51.976;20.144;2023-03-23T12:25:38;99214.59;;;25.92;24.69
36664;BME280;53333;51.976;20.144;2023-03-23T12:28:21;99208.31;;;25.49;25.28
36664;BME280;53333;51.976;20.144;2023-03-23T12:31:01;99201.72;;;25.07;25.83
36664;BME280;53333;51.976;20.144;2023-03-23T12:33:43;99199.78;;;24.71;26.75
36664;BME280;53333;51.976;20.144;2023-03-23T12:36:32;99222.81;;;24.38;26.93
36664;BME280;53333;51.976;20.144;2023-03-23T12:39:34;99231.38;;;23.74;27.39
36664;BME280;53333;51.976;20.144;2023-03-23T12:42:14;99222.22;;;23.20;28.83
36664;BME280;53333;51.976;20.144;2023-03-23T12:44:54;99221.88;;;22.76;29.32
36664;BME280;53333;51.976;20.144;2023-03-23T12:47:36;99237.47;;;22.26;29.94
36664;BME280;53333;51.976;20.144;2023-03-23T12:50:14;99248.53;;;21.83;30.66
36664;BME280;53333;51.976;20.144;2023-03-23T12:52:52;99248.97;;;21.46;31.60
36664;BME280;53333;51.976;20.144;2023-03-23T12:55:32;99257.03;;;21.13;31.97
36664;BME280;53333;51.976;20.144;2023-03-23T12:58:12;99253.88;;;20.83;32.60
36664;BME280;53333;51.976;20.144;2023-03-23T13:00:54;99254.41;;;20.60;32.83
36664;BME280;53333;51.976;20.144;2023-03-23T13:03:33;99260.75;;;20.43;33.20
36664;BME280;53333;51.976;20.144;2023-03-23T13:06:15;99254.66;;;20.23;33.55
36664;BME280;53333;51.976;20.144;2023-03-23T13:08:55;99265.56;;;20.05;34.21
36664;BME280;53333;51.976;20.144;2023-03-23T13:11:32;99258.50;;;19.94;34.48
36664;BME280;53333;51.976;20.144;2023-03-23T13:14:16;99255.91;;;19.84;34.89
36664;BME280;53333;51.976;20.144;2023-03-23T13:16:58;99245.69;;;19.78;35.02
36664;BME280;53333;51.976;20.144;2023-03-23T13:19:47;99250.53;;;19.74;35.47
36664;BME280;53333;51.976;20.144;2023-03-23T13:22:25;99249.69;;;19.74;35.59
36664;BME280;53333;51.976;20.144;2023-03-23T13:25:00;99239.56;;;19.76;35.64
36664;BME280;53333;51.976;20.144;2023-03-23T13:27:34;99239.41;;;19.77;36.08
36664;BME280;53333;51.976;20.144;2023-03-23T13:30:18;99239.94;;;19.81;35.97
36664;BME280;53333;51.976;20.144;2023-03-23T13:33:03;99247.28;;;19.71;36.26
36664;BME280;53333;51.976;20.144;2023-03-23T13:35:37;99244.09;;;19.57;36.69
36664;BME280;53333;51.976;20.144;2023-03-23T13:38:19;99242.66;;;19.45;36.52
36664;BME280;53333;51.976;20.144;2023-03-23T13:40:55;99253.72;;;19.34;36.59
36664;BME280;53333;51.976;20.144;2023-03-23T13:43:37;99258.63;;;19.20;36.73
36664;BME280;53333;51.976;20.144;2023-03-23T13:46:27;99256.53;;;19.14;37.13
36664;BME280;53333;51.976;20.144;2023-03-23T13:49:15;99259.81;;;19.08;37.22
36664;BME280;53333;51.976;20.144;2023-03-23T13:52:06;99255.44;;;19.07;37.40
36664;BME280;53333;51.976;20.144;2023-03-23T13:54:41;99265.88;;;19.02;37.54
36664;BME280;53333;51.976;20.144;2023-03-23T13:57:35;99263.31;;;19.00;37.83
36664;BME280;53333;51.976;20.144;2023-03-23T14:00:44;99261.75;;;18.98;37.75
36664;BME280;53333;51.976;20.144;2023-03-23T14:03:25;99268.16;;;18.97;38.01